sensor_id;sensor_type;location;lat;lon;timestamp;temperature;humidity
64638;HTU21D;51049;45.046;38.950;2023-07-16T00:00:02;20.22;69.54
64638;HTU21D;51049;45.046;38.950;2023-07-16T00:02:31;20.21;69.52
64638;HTU21D;51049;45.046;38.950;2023-07-16T00:04:57;20.20;69.49
64638;HTU21D;51049;45.046;38.950;2023-07-16T00:07:23;20.20;69.49
64638;HTU21D;51049;45.046;38.950;2023-07-16T00:09:49;20.17;69.52
64638;HTU21D;51049;45.046;38.950;2023-07-16T00:12:15;20.15;69.58
64638;HTU21D;51049;45.046;38.950;2023-07-16T00:14:41;20.14;69.59
64638;HTU21D;51049;45.046;38.950;2023-07-16T00:17:07;20.10;69.66
64638;HTU21D;51049;45.046;38.950;2023-07-16T00:19:33;20.07;69.68
64638;HTU21D;51049;45.046;38.950;2023-07-16T00:21:58;20.06;69.75
64638;HTU21D;51049;45.046;38.950;2023-07-16T00:24:24;20.04;69.69
64638;HTU21D;51049;45.046;38.950;2023-07-16T00:26:50;20.04;69.63
64638;HTU21D;51049;45.046;38.950;2023-07-16T00:29:16;20.04;69.64
64638;HTU21D;51049;45.046;38.950;2023-07-16T00:31:42;20.03;69.58
64638;HTU21D;51049;45.046;38.950;2023-07-16T00:34:08;20.01;69.56
64638;HTU21D;51049;45.046;38.950;2023-07-16T00:36:34;20.00;69.55
64638;HTU21D;51049;45.046;38.950;2023-07-16T00:39:00;19.98;69.56
64638;HTU21D;51049;45.046;38.950;2023-07-16T00:41:26;19.97;69.58
64638;HTU21D;51049;45.046;38.950;2023-07-16T00:43:52;19.97;69.63
64638;HTU21D;51049;45.046;38.950;2023-07-16T00:46:19;19.96;69.68
64638;HTU21D;51049;45.046;38.950;2023-07-16T00:48:45;19.97;69.70
64638;HTU21D;51049;45.046;38.950;2023-07-16T00:51:12;19.98;69.70
64638;HTU21D;51049;45.046;38.950;2023-07-16T00:53:41;19.98;69.74
64638;HTU21D;51049;45.046;38.950;2023-07-16T00:56:08;19.97;69.78
64638;HTU21D;51049;45.046;38.950;2023-07-16T00:58:34;19.97;69.81
64638;HTU21D;51049;45.046;38.950;2023-07-16T01:01:00;19.96;69.86
64638;HTU21D;51049;45.046;38.950;2023-07-16T01:03:27;19.96;69.94
64638;HTU21D;51049;45.046;38.950;2023-07-16T01:11:07;19.91;70.07
64638;HTU21D;51049;45.046;38.950;2023-07-16T01:13:34;19.89;70.13
64638;HTU21D;51049;45.046;38.950;2023-07-16T01:16:00;19.87;70.20
64638;HTU21D;51049;45.046;38.950;2023-07-16T01:18:26;19.85;70.26
64638;HTU21D;51049;45.046;38.950;2023-07-16T01:20:52;19.84;70.25
64638;HTU21D;51049;45.046;38.950;2023-07-16T01:23:35;19.83;70.32
64638;HTU21D;51049;45.046;38.950;2023-07-16T01:26:08;19.82;70.37
64638;HTU21D;51049;45.046;38.950;2023-07-16T01:31:33;19.79;70.35
64638;HTU21D;51049;45.046;38.950;2023-07-16T01:34:00;19.76;70.45
64638;HTU21D;51049;45.046;38.950;2023-07-16T01:36:28;19.74;70.55
64638;HTU21D;51049;45.046;38.950;2023-07-16T01:38:55;19.71;70.62
64638;HTU21D;51049;45.046;38.950;2023-07-16T01:41:21;19.70;70.72
64638;HTU21D;51049;45.046;38.950;2023-07-16T01:43:47;19.68;70.76
64638;HTU21D;51049;45.046;38.950;2023-07-16T01:46:13;19.67;70.81
64638;HTU21D;51049;45.046;38.950;2023-07-16T01:48:40;19.65;70.90
64638;HTU21D;51049;45.046;38.950;2023-07-16T01:51:06;19.63;70.96
64638;HTU21D;51049;45.046;38.950;2023-07-16T01:53:32;19.63;71.01
64638;HTU21D;51049;45.046;38.950;2023-07-16T01:56:01;19.62;71.08
64638;HTU21D;51049;45.046;38.950;2023-07-16T01:58:28;19.61;71.10
64638;HTU21D;51049;45.046;38.950;2023-07-16T02:00:54;19.59;71.11
64638;HTU21D;51049;45.046;38.950;2023-07-16T02:03:20;19.59;71.14
64638;HTU21D;51049;45.046;38.950;2023-07-16T02:05:46;19.59;71.23
64638;HTU21D;51049;45.046;38.950;2023-07-16T02:08:12;19.60;71.28
64638;HTU21D;51049;45.046;38.950;2023-07-16T02:10:38;19.62;71.26
64638;HTU21D;51049;45.046;38.950;2023-07-16T02:13:04;19.63;71.29
64638;HTU21D;51049;45.046;38.950;2023-07-16T02:15:30;19.65;71.27
64638;HTU21D;51049;45.046;38.950;2023-07-16T02:17:56;19.66;71.37
64638;HTU21D;51049;45.046;38.950;2023-07-16T02:20:22;19.67;71.32
64638;HTU21D;51049;45.046;38.950;2023-07-16T02:22:48;19.70;71.31
64638;HTU21D;51049;45.046;38.950;2023-07-16T02:25:14;19.72;71.32
64638;HTU21D;51049;45.046;38.950;2023-07-16T02:27:39;19.75;71.29
64638;HTU21D;51049;45.046;38.950;2023-07-16T02:30:06;19.77;71.34
64638;HTU21D;51049;45.046;38.950;2023-07-16T02:32:33;19.80;71.38
64638;HTU21D;51049;45.046;38.950;2023-07-16T02:35:01;19.84;71.38
64638;HTU21D;51049;45.046;38.950;2023-07-16T02:37:27;19.90;71.35
64638;HTU21D;51049;45.046;38.950;2023-07-16T02:39:53;19.94;71.29
64638;HTU21D;51049;45.046;38.950;2023-07-16T02:42:19;19.98;71.24
64638;HTU21D;51049;45.046;38.950;2023-07-16T02:44:45;20.03;71.21
64638;HTU21D;51049;45.046;38.950;2023-07-16T02:47:11;20.04;71.22
64638;HTU21D;51049;45.046;38.950;2023-07-16T02:49:38;20.09;71.27
64638;HTU21D;51049;45.046;38.950;2023-07-16T02:52:05;20.13;71.29
64638;HTU21D;51049;45.046;38.950;2023-07-16T02:54:32;20.17;71.33
64638;HTU21D;51049;45.046;38.950;2023-07-16T02:56:58;20.21;71.32
64638;HTU21D;51049;45.046;38.950;2023-07-16T02:59:24;20.28;71.26
64638;HTU21D;51049;45.046;38.950;2023-07-16T03:01:51;20.33;71.19
64638;HTU21D;51049;45.046;38.950;2023-07-16T03:04:17;20.36;71.15
64638;HTU21D;51049;45.046;38.950;2023-07-16T03:06:42;20.42;71.10
64638;HTU21D;51049;45.046;38.950;2023-07-16T03:09:08;20.46;71.12
64638;HTU21D;51049;45.046;38.950;2023-07-16T03:11:34;20.48;71.11
64638;HTU21D;51049;45.046;38.950;2023-07-16T03:14:00;20.53;71.11
64638;HTU21D;51049;45.046;38.950;2023-07-16T03:16:27;20.58;71.12
64638;HTU21D;51049;45.046;38.950;2023-07-16T03:18:53;20.65;71.03
64638;HTU21D;51049;45.046;38.950;2023-07-16T03:21:19;20.73;70.94
64638;HTU21D;51049;45.046;38.950;2023-07-16T03:23:47;20.80;70.87
64638;HTU21D;51049;45.046;38.950;2023-07-16T03:26:13;20.88;70.81
64638;HTU21D;51049;45.046;38.950;2023-07-16T03:28:39;20.94;70.76
64638;HTU21D;51049;45.046;38.950;2023-07-16T03:31:07;21.02;70.71
64638;HTU21D;51049;45.046;38.950;2023-07-16T03:33:36;21.08;70.65
64638;HTU21D;51049;45.046;38.950;2023-07-16T03:36:03;21.17;70.55
64638;HTU21D;51049;45.046;38.950;2023-07-16T03:38:29;21.23;70.47
64638;HTU21D;51049;45.046;38.950;2023-07-16T03:40:55;21.30;70.48
64638;HTU21D;51049;45.046;38.950;2023-07-16T03:43:21;21.37;70.46
64638;HTU21D;51049;45.046;38.950;2023-07-16T03:45:49;21.45;70.39
64638;HTU21D;51049;45.046;38.950;2023-07-16T03:48:15;21.48;70.32
64638;HTU21D;51049;45.046;38.950;2023-07-16T03:50:41;21.54;70.33
64638;HTU21D;51049;45.046;38.950;2023-07-16T03:53:07;21.61;70.32
64638;HTU21D;51049;45.046;38.950;2023-07-16T03:55:34;21.66;70.35
64638;HTU21D;51049;45.046;38.950;2023-07-16T03:58:00;21.72;70.29
64638;HTU21D;51049;45.046;38.950;2023-07-16T04:00:26;21.78;70.25
64638;HTU21D;51049;45.046;38.950;2023-07-16T04:02:52;21.88;70.13
64638;HTU21D;51049;45.046;38.950;2023-07-16T04:05:19;21.98;70.03
64638;HTU21D;51049;45.046;38.950;2023-07-16T04:07:45;22.10;69.84
64638;HTU21D;51049;45.046;38.950;2023-07-16T04:10:11;22.20;69.66
64638;HTU21D;51049;45.046;38.950;2023-07-16T04:12:37;22.32;69.54
64638;HTU21D;51049;45.046;38.950;2023-07-16T04:15:07;22.43;69.47
64638;HTU21D;51049;45.046;38.950;2023-07-16T04:17:35;22.55;69.28
64638;HTU21D;51049;45.046;38.950;2023-07-16T04:20:01;22.64;69.08
64638;HTU21D;51049;45.046;38.950;2023-07-16T04:22:27;22.69;68.92
64638;HTU21D;51049;45.046;38.950;2023-07-16T04:24:53;22.73;68.81
64638;HTU21D;51049;45.046;38.950;2023-07-16T04:27:19;22.76;68.76
64638;HTU21D;51049;45.046;38.950;2023-07-16T04:29:45;22.82;68.81
64638;HTU21D;51049;45.046;38.950;2023-07-16T04:32:11;22.91;68.78
64638;HTU21D;51049;45.046;38.950;2023-07-16T04:34:37;23.00;68.63
64638;HTU21D;51049;45.046;38.950;2023-07-16T04:37:03;23.09;68.52
64638;HTU21D;51049;45.046;38.950;2023-07-16T04:39:28;23.20;68.42
64638;HTU21D;51049;45.046;38.950;2023-07-16T04:41:54;23.32;68.17
64638;HTU21D;51049;45.046;38.950;2023-07-16T04:44:20;23.41;67.94
64638;HTU21D;51049;45.046;38.950;2023-07-16T04:46:46;23.49;67.78
64638;HTU21D;51049;45.046;38.950;2023-07-16T04:49:12;23.58;67.64
64638;HTU21D;51049;45.046;38.950;2023-07-16T04:51:38;23.67;67.52
64638;HTU21D;51049;45.046;38.950;2023-07-16T04:54:04;23.76;67.39
64638;HTU21D;51049;45.046;38.950;2023-07-16T04:56:30;23.86;67.13
64638;HTU21D;51049;45.046;38.950;2023-07-16T04:58:56;23.94;67.01
64638;HTU21D;51049;45.046;38.950;2023-07-16T05:01:22;23.98;66.93
64638;HTU21D;51049;45.046;38.950;2023-07-16T05:03:48;24.03;66.98
64638;HTU21D;51049;45.046;38.950;2023-07-16T05:06:14;24.11;66.91
64638;HTU21D;51049;45.046;38.950;2023-07-16T05:08:40;24.15;66.84
64638;HTU21D;51049;45.046;38.950;2023-07-16T05:11:06;24.23;66.67
64638;HTU21D;51049;45.046;38.950;2023-07-16T05:13:31;24.26;66.45
64638;HTU21D;51049;45.046;38.950;2023-07-16T05:15:58;24.29;66.21
64638;HTU21D;51049;45.046;38.950;2023-07-16T05:18:24;24.39;66.21
64638;HTU21D;51049;45.046;38.950;2023-07-16T05:20:50;24.48;66.10
64638;HTU21D;51049;45.046;38.950;2023-07-16T05:23:16;24.62;65.89
64638;HTU21D;51049;45.046;38.950;2023-07-16T05:25:47;24.72;65.59
64638;HTU21D;51049;45.046;38.950;2023-07-16T05:28:14;24.82;65.44
64638;HTU21D;51049;45.046;38.950;2023-07-16T05:30:40;24.90;65.27
64638;HTU21D;51049;45.046;38.950;2023-07-16T05:33:06;24.99;65.13
64638;HTU21D;51049;45.046;38.950;2023-07-16T05:35:32;25.06;64.93
64638;HTU21D;51049;45.046;38.950;2023-07-16T05:37:58;25.12;64.61
64638;HTU21D;51049;45.046;38.950;2023-07-16T05:40:24;25.18;64.34
64638;HTU21D;51049;45.046;38.950;2023-07-16T05:42:50;25.27;64.24
64638;HTU21D;51049;45.046;38.950;2023-07-16T05:45:16;25.35;63.90
64638;HTU21D;51049;45.046;38.950;2023-07-16T05:47:42;25.42;63.75
64638;HTU21D;51049;45.046;38.950;2023-07-16T05:50:08;25.49;63.32
64638;HTU21D;51049;45.046;38.950;2023-07-16T05:52:34;25.60;63.20
64638;HTU21D;51049;45.046;38.950;2023-07-16T05:55:00;25.72;62.75
64638;HTU21D;51049;45.046;38.950;2023-07-16T05:57:26;25.83;62.50
64638;HTU21D;51049;45.046;38.950;2023-07-16T05:59:52;25.93;61.81
64638;HTU21D;51049;45.046;38.950;2023-07-16T06:02:18;25.99;61.29
64638;HTU21D;51049;45.046;38.950;2023-07-16T06:04:44;26.07;61.16
64638;HTU21D;51049;45.046;38.950;2023-07-16T06:07:09;26.16;60.95
64638;HTU21D;51049;45.046;38.950;2023-07-16T06:09:35;26.25;60.54
64638;HTU21D;51049;45.046;38.950;2023-07-16T06:12:01;26.28;60.07
64638;HTU21D;51049;45.046;38.950;2023-07-16T06:14:27;26.36;59.73
64638;HTU21D;51049;45.046;38.950;2023-07-16T06:16:53;26.43;59.38
64638;HTU21D;51049;45.046;38.950;2023-07-16T06:19:19;26.56;58.89
64638;HTU21D;51049;45.046;38.950;2023-07-16T06:21:47;26.67;58.30
64638;HTU21D;51049;45.046;38.950;2023-07-16T06:24:13;26.77;57.32
64638;HTU21D;51049;45.046;38.950;2023-07-16T06:26:39;26.82;56.92
64638;HTU21D;51049;45.046;38.950;2023-07-16T06:29:05;26.92;56.74
64638;HTU21D;51049;45.046;38.950;2023-07-16T06:31:31;26.99;56.15
64638;HTU21D;51049;45.046;38.950;2023-07-16T06:33:56;27.10;56.05
64638;HTU21D;51049;45.046;38.950;2023-07-16T06:36:22;27.20;55.33
64638;HTU21D;51049;45.046;38.950;2023-07-16T06:38:48;27.24;54.84
64638;HTU21D;51049;45.046;38.950;2023-07-16T06:41:14;27.26;54.36
64638;HTU21D;51049;45.046;38.950;2023-07-16T06:43:40;27.32;53.14
64638;HTU21D;51049;45.046;38.950;2023-07-16T06:46:06;27.40;52.86
64638;HTU21D;51049;45.046;38.950;2023-07-16T06:48:32;27.52;52.43
64638;HTU21D;51049;45.046;38.950;2023-07-16T06:50:58;27.59;51.72
64638;HTU21D;51049;45.046;38.950;2023-07-16T06:53:24;27.65;51.56
64638;HTU21D;51049;45.046;38.950;2023-07-16T06:55:49;27.78;51.44
64638;HTU21D;51049;45.046;38.950;2023-07-16T06:58:15;27.95;51.01
64638;HTU21D;51049;45.046;38.950;2023-07-16T07:00:41;28.04;50.28
64638;HTU21D;51049;45.046;38.950;2023-07-16T07:03:07;28.12;49.02
64638;HTU21D;51049;45.046;38.950;2023-07-16T07:05:33;28.19;48.75
64638;HTU21D;51049;45.046;38.950;2023-07-16T07:08:02;28.27;48.41
64638;HTU21D;51049;45.046;38.950;2023-07-16T07:10:28;28.38;48.45
64638;HTU21D;51049;45.046;38.950;2023-07-16T07:12:53;28.47;48.32
64638;HTU21D;51049;45.046;38.950;2023-07-16T07:15:19;28.61;48.14
64638;HTU21D;51049;45.046;38.950;2023-07-16T07:17:45;28.74;48.05
64638;HTU21D;51049;45.046;38.950;2023-07-16T07:20:12;28.87;47.47
64638;HTU21D;51049;45.046;38.950;2023-07-16T07:22:39;28.91;46.99
64638;HTU21D;51049;45.046;38.950;2023-07-16T07:25:05;28.99;46.82
64638;HTU21D;51049;45.046;38.950;2023-07-16T07:27:31;29.07;46.69
64638;HTU21D;51049;45.046;38.950;2023-07-16T07:29:57;29.21;46.52
64638;HTU21D;51049;45.046;38.950;2023-07-16T07:32:23;29.33;46.03
64638;HTU21D;51049;45.046;38.950;2023-07-16T07:34:50;29.38;45.38
64638;HTU21D;51049;45.046;38.950;2023-07-16T07:37:16;29.46;45.38
64638;HTU21D;51049;45.046;38.950;2023-07-16T07:39:41;29.48;44.96
64638;HTU21D;51049;45.046;38.950;2023-07-16T07:42:07;29.57;44.43
64638;HTU21D;51049;45.046;38.950;2023-07-16T07:44:35;29.62;43.69
64638;HTU21D;51049;45.046;38.950;2023-07-16T07:47:01;29.59;43.85
64638;HTU21D;51049;45.046;38.950;2023-07-16T07:49:27;29.59;43.80
64638;HTU21D;51049;45.046;38.950;2023-07-16T07:51:53;29.62;43.78
64638;HTU21D;51049;45.046;38.950;2023-07-16T07:54:20;29.62;43.87
64638;HTU21D;51049;45.046;38.950;2023-07-16T07:56:46;29.64;44.18
64638;HTU21D;51049;45.046;38.950;2023-07-16T07:59:12;29.70;43.69
64638;HTU21D;51049;45.046;38.950;2023-07-16T08:01:38;29.74;43.15
64638;HTU21D;51049;45.046;38.950;2023-07-16T08:04:04;29.80;42.83
64638;HTU21D;51049;45.046;38.950;2023-07-16T08:06:30;29.89;42.69
64638;HTU21D;51049;45.046;38.950;2023-07-16T08:08:56;29.91;42.32
64638;HTU21D;51049;45.046;38.950;2023-07-16T08:11:22;29.97;42.26
64638;HTU21D;51049;45.046;38.950;2023-07-16T08:13:48;30.03;41.65
64638;HTU21D;51049;45.046;38.950;2023-07-16T08:16:15;30.01;41.57
64638;HTU21D;51049;45.046;38.950;2023-07-16T08:18:40;29.94;41.87
64638;HTU21D;51049;45.046;38.950;2023-07-16T08:21:06;29.77;42.06
64638;HTU21D;51049;45.046;38.950;2023-07-16T08:23:33;29.50;42.10
64638;HTU21D;51049;45.046;38.950;2023-07-16T08:25:59;29.21;42.47
64638;HTU21D;51049;45.046;38.950;2023-07-16T08:28:25;28.92;42.99
64638;HTU21D;51049;45.046;38.950;2023-07-16T08:30:51;28.43;44.74
64638;HTU21D;51049;45.046;38.950;2023-07-16T08:33:17;27.21;47.04
64638;HTU21D;51049;45.046;38.950;2023-07-16T08:35:42;25.89;50.10
64638;HTU21D;51049;45.046;38.950;2023-07-16T08:38:08;24.64;52.48
64638;HTU21D;51049;45.046;38.950;2023-07-16T08:40:38;23.54;54.48
64638;HTU21D;51049;45.046;38.950;2023-07-16T08:43:06;22.71;56.37
64638;HTU21D;51049;45.046;38.950;2023-07-16T08:45:39;22.07;57.42
64638;HTU21D;51049;45.046;38.950;2023-07-16T08:48:13;21.65;58.45
64638;HTU21D;51049;45.046;38.950;2023-07-16T08:50:41;21.40;58.97
64638;HTU21D;51049;45.046;38.950;2023-07-16T08:53:07;21.28;59.56
64638;HTU21D;51049;45.046;38.950;2023-07-16T08:55:34;21.29;60.35
64638;HTU21D;51049;45.046;38.950;2023-07-16T08:58:03;21.37;60.87
64638;HTU21D;51049;45.046;38.950;2023-07-16T09:00:30;21.53;61.31
64638;HTU21D;51049;45.046;38.950;2023-07-16T09:02:56;21.68;61.62
64638;HTU21D;51049;45.046;38.950;2023-07-16T09:05:23;21.83;61.92
64638;HTU21D;51049;45.046;38.950;2023-07-16T09:07:49;22.03;62.15
64638;HTU21D;51049;45.046;38.950;2023-07-16T09:10:16;22.19;62.05
64638;HTU21D;51049;45.046;38.950;2023-07-16T09:12:46;22.31;62.22
64638;HTU21D;51049;45.046;38.950;2023-07-16T09:15:16;22.39;62.27
64638;HTU21D;51049;45.046;38.950;2023-07-16T09:17:42;22.48;62.60
64638;HTU21D;51049;45.046;38.950;2023-07-16T09:20:15;22.57;63.02
64638;HTU21D;51049;45.046;38.950;2023-07-16T09:22:41;22.64;62.94
64638;HTU21D;51049;45.046;38.950;2023-07-16T09:25:07;22.66;63.23
64638;HTU21D;51049;45.046;38.950;2023-07-16T09:27:33;22.73;63.56
64638;HTU21D;51049;45.046;38.950;2023-07-16T09:29:59;22.85;63.73
64638;HTU21D;51049;45.046;38.950;2023-07-16T09:32:35;22.98;64.07
64638;HTU21D;51049;45.046;38.950;2023-07-16T09:35:07;23.12;64.46
64638;HTU21D;51049;45.046;38.950;2023-07-16T09:37:33;23.40;64.73
64638;HTU21D;51049;45.046;38.950;2023-07-16T09:40:01;23.83;64.72
64638;HTU21D;51049;45.046;38.950;2023-07-16T09:42:29;24.27;64.19
64638;HTU21D;51049;45.046;38.950;2023-07-16T09:44:56;24.69;63.37
64638;HTU21D;51049;45.046;38.950;2023-07-16T09:47:22;25.06;62.93
64638;HTU21D;51049;45.046;38.950;2023-07-16T09:49:48;25.47;62.69
64638;HTU21D;51049;45.046;38.950;2023-07-16T09:52:14;25.84;61.83
64638;HTU21D;51049;45.046;38.950;2023-07-16T09:54:41;26.17;60.93
64638;HTU21D;51049;45.046;38.950;2023-07-16T09:57:07;26.37;59.90
64638;HTU21D;51049;45.046;38.950;2023-07-16T09:59:34;26.35;58.81
64638;HTU21D;51049;45.046;38.950;2023-07-16T10:02:01;26.31;58.72
64638;HTU21D;51049;45.046;38.950;2023-07-16T10:04:37;26.32;58.58
64638;HTU21D;51049;45.046;38.950;2023-07-16T10:07:05;26.33;58.51
64638;HTU21D;51049;45.046;38.950;2023-07-16T10:09:37;26.34;58.73
64638;HTU21D;51049;45.046;38.950;2023-07-16T10:12:19;26.39;58.45
64638;HTU21D;51049;45.046;38.950;2023-07-16T10:14:53;26.51;58.24
64638;HTU21D;51049;45.046;38.950;2023-07-16T10:17:21;26.72;58.00
64638;HTU21D;51049;45.046;38.950;2023-07-16T10:20:01;27.09;57.21
64638;HTU21D;51049;45.046;38.950;2023-07-16T10:22:43;27.46;56.96
64638;HTU21D;51049;45.046;38.950;2023-07-16T10:27:43;28.17;55.77
64638;HTU21D;51049;45.046;38.950;2023-07-16T10:30:09;28.55;54.97
64638;HTU21D;51049;45.046;38.950;2023-07-16T10:32:36;28.83;53.72
64638;HTU21D;51049;45.046;38.950;2023-07-16T10:35:05;29.05;52.69
64638;HTU21D;51049;45.046;38.950;2023-07-16T10:37:32;29.17;51.69
64638;HTU21D;51049;45.046;38.950;2023-07-16T10:39:59;29.20;51.11
64638;HTU21D;51049;45.046;38.950;2023-07-16T10:42:27;29.35;51.07
64638;HTU21D;51049;45.046;38.950;2023-07-16T10:44:57;29.63;50.57
64638;HTU21D;51049;45.046;38.950;2023-07-16T10:47:33;29.96;49.57
64638;HTU21D;51049;45.046;38.950;2023-07-16T10:50:02;30.24;48.66
64638;HTU21D;51049;45.046;38.950;2023-07-16T10:52:29;30.19;47.82
64638;HTU21D;51049;45.046;38.950;2023-07-16T10:54:55;30.16;47.83
64638;HTU21D;51049;45.046;38.950;2023-07-16T10:57:26;30.23;47.35
64638;HTU21D;51049;45.046;38.950;2023-07-16T10:59:54;30.36;46.68
64638;HTU21D;51049;45.046;38.950;2023-07-16T11:02:22;30.41;45.45
64638;HTU21D;51049;45.046;38.950;2023-07-16T11:04:48;30.39;44.93
64638;HTU21D;51049;45.046;38.950;2023-07-16T11:07:15;30.44;44.83
64638;HTU21D;51049;45.046;38.950;2023-07-16T11:09:43;30.40;44.06
64638;HTU21D;51049;45.046;38.950;2023-07-16T11:12:14;30.27;42.51
64638;HTU21D;51049;45.046;38.950;2023-07-16T11:14:44;30.21;42.88
64638;HTU21D;51049;45.046;38.950;2023-07-16T11:17:11;30.30;42.15
64638;HTU21D;51049;45.046;38.950;2023-07-16T11:19:37;30.39;41.89
64638;HTU21D;51049;45.046;38.950;2023-07-16T11:22:05;30.52;41.62
64638;HTU21D;51049;45.046;38.950;2023-07-16T11:24:47;30.64;40.89
64638;HTU21D;51049;45.046;38.950;2023-07-16T11:29:48;30.71;39.07
64638;HTU21D;51049;45.046;38.950;2023-07-16T11:32:36;30.77;39.69
64638;HTU21D;51049;45.046;38.950;2023-07-16T11:35:06;30.86;38.45
64638;HTU21D;51049;45.046;38.950;2023-07-16T11:37:35;30.81;37.65
64638;HTU21D;51049;45.046;38.950;2023-07-16T11:40:08;30.78;37.50
64638;HTU21D;51049;45.046;38.950;2023-07-16T11:42:36;30.77;37.44
64638;HTU21D;51049;45.046;38.950;2023-07-16T11:45:03;30.82;37.00
64638;HTU21D;51049;45.046;38.950;2023-07-16T11:47:30;30.86;36.56
64638;HTU21D;51049;45.046;38.950;2023-07-16T11:49:56;30.92;35.92
64638;HTU21D;51049;45.046;38.950;2023-07-16T11:52:24;30.99;35.30
64638;HTU21D;51049;45.046;38.950;2023-07-16T11:54:55;31.12;34.94
64638;HTU21D;51049;45.046;38.950;2023-07-16T11:57:22;31.25;34.96
64638;HTU21D;51049;45.046;38.950;2023-07-16T11:59:48;31.41;33.99
64638;HTU21D;51049;45.046;38.950;2023-07-16T12:02:14;31.72;33.35
64638;HTU21D;51049;45.046;38.950;2023-07-16T12:04:41;32.17;32.80
64638;HTU21D;51049;45.046;38.950;2023-07-16T12:07:07;32.61;32.09
64638;HTU21D;51049;45.046;38.950;2023-07-16T12:09:33;32.69;31.58
64638;HTU21D;51049;45.046;38.950;2023-07-16T12:12:00;32.82;31.21
64638;HTU21D;51049;45.046;38.950;2023-07-16T12:14:26;32.98;31.19
64638;HTU21D;51049;45.046;38.950;2023-07-16T12:16:52;33.14;30.61
64638;HTU21D;51049;45.046;38.950;2023-07-16T12:19:18;33.41;30.09
64638;HTU21D;51049;45.046;38.950;2023-07-16T12:21:44;33.80;29.71
64638;HTU21D;51049;45.046;38.950;2023-07-16T12:24:11;34.26;29.13
64638;HTU21D;51049;45.046;38.950;2023-07-16T12:26:37;34.56;28.80
64638;HTU21D;51049;45.046;38.950;2023-07-16T12:29:03;34.74;28.33
64638;HTU21D;51049;45.046;38.950;2023-07-16T12:31:33;35.03;27.87
64638;HTU21D;51049;45.046;38.950;2023-07-16T12:33:59;35.44;27.62
64638;HTU21D;51049;45.046;38.950;2023-07-16T12:36:27;35.87;27.41
64638;HTU21D;51049;45.046;38.950;2023-07-16T12:38:54;36.09;27.20
64638;HTU21D;51049;45.046;38.950;2023-07-16T12:41:20;36.07;26.97
64638;HTU21D;51049;45.046;38.950;2023-07-16T12:43:46;36.16;26.84
64638;HTU21D;51049;45.046;38.950;2023-07-16T12:46:12;36.15;25.92
64638;HTU21D;51049;45.046;38.950;2023-07-16T12:48:38;36.14;25.95
64638;HTU21D;51049;45.046;38.950;2023-07-16T12:51:04;36.23;25.29
64638;HTU21D;51049;45.046;38.950;2023-07-16T12:53:30;36.21;25.66
64638;HTU21D;51049;45.046;38.950;2023-07-16T12:55:56;36.34;25.41
64638;HTU21D;51049;45.046;38.950;2023-07-16T12:58:22;36.57;24.76
64638;HTU21D;51049;45.046;38.950;2023-07-16T13:00:48;36.61;23.84
64638;HTU21D;51049;45.046;38.950;2023-07-16T13:03:14;36.56;23.13
64638;HTU21D;51049;45.046;38.950;2023-07-16T13:05:43;36.29;23.11
64638;HTU21D;51049;45.046;38.950;2023-07-16T13:08:10;36.23;23.53
64638;HTU21D;51049;45.046;38.950;2023-07-16T13:10:37;36.14;23.40
64638;HTU21D;51049;45.046;38.950;2023-07-16T13:13:03;35.64;23.91
64638;HTU21D;51049;45.046;38.950;2023-07-16T13:15:29;35.12;24.89
64638;HTU21D;51049;45.046;38.950;2023-07-16T13:17:55;35.33;25.09
64638;HTU21D;51049;45.046;38.950;2023-07-16T13:20:22;35.69;24.83
64638;HTU21D;51049;45.046;38.950;2023-07-16T13:22:49;35.99;24.49
64638;HTU21D;51049;45.046;38.950;2023-07-16T13:25:16;36.06;24.37
64638;HTU21D;51049;45.046;38.950;2023-07-16T13:27:41;36.13;24.20
64638;HTU21D;51049;45.046;38.950;2023-07-16T13:30:08;36.33;24.36
64638;HTU21D;51049;45.046;38.950;2023-07-16T13:32:34;36.51;23.83
64638;HTU21D;51049;45.046;38.950;2023-07-16T13:35:00;36.46;23.95
64638;HTU21D;51049;45.046;38.950;2023-07-16T13:37:26;36.23;23.86
64638;HTU21D;51049;45.046;38.950;2023-07-16T13:39:53;36.08;24.14
64638;HTU21D;51049;45.046;38.950;2023-07-16T13:42:19;36.11;24.38
64638;HTU21D;51049;45.046;38.950;2023-07-16T13:44:45;36.18;23.96
64638;HTU21D;51049;45.046;38.950;2023-07-16T13:47:11;36.32;23.81
64638;HTU21D;51049;45.046;38.950;2023-07-16T13:49:37;36.60;23.34
64638;HTU21D;51049;45.046;38.950;2023-07-16T13:52:03;36.73;22.92
64638;HTU21D;51049;45.046;38.950;2023-07-16T13:54:29;36.82;22.79
64638;HTU21D;51049;45.046;38.950;2023-07-16T13:56:55;36.78;22.72
64638;HTU21D;51049;45.046;38.950;2023-07-16T13:59:21;36.60;22.29
64638;HTU21D;51049;45.046;38.950;2023-07-16T14:01:47;36.36;22.82
64638;HTU21D;51049;45.046;38.950;2023-07-16T14:04:13;36.26;22.65
64638;HTU21D;51049;45.046;38.950;2023-07-16T14:06:39;36.23;23.01
64638;HTU21D;51049;45.046;38.950;2023-07-16T14:09:05;36.32;22.68
64638;HTU21D;51049;45.046;38.950;2023-07-16T14:11:31;36.19;22.54
64638;HTU21D;51049;45.046;38.950;2023-07-16T14:13:57;36.01;22.88
64638;HTU21D;51049;45.046;38.950;2023-07-16T14:16:23;35.94;22.79
64638;HTU21D;51049;45.046;38.950;2023-07-16T14:18:53;35.78;22.79
64638;HTU21D;51049;45.046;38.950;2023-07-16T14:21:19;35.57;22.78
64638;HTU21D;51049;45.046;38.950;2023-07-16T14:23:46;35.43;23.03
64638;HTU21D;51049;45.046;38.950;2023-07-16T14:26:12;35.33;23.27
64638;HTU21D;51049;45.046;38.950;2023-07-16T14:28:38;35.23;23.46
64638;HTU21D;51049;45.046;38.950;2023-07-16T14:31:04;35.36;23.59
64638;HTU21D;51049;45.046;38.950;2023-07-16T14:33:30;35.43;23.37
64638;HTU21D;51049;45.046;38.950;2023-07-16T14:35:57;35.63;23.11
64638;HTU21D;51049;45.046;38.950;2023-07-16T14:38:23;35.62;22.99
64638;HTU21D;51049;45.046;38.950;2023-07-16T14:40:49;35.43;23.09
64638;HTU21D;51049;45.046;38.950;2023-07-16T14:43:18;35.23;23.27
64638;HTU21D;51049;45.046;38.950;2023-07-16T14:45:44;35.05;23.48
64638;HTU21D;51049;45.046;38.950;2023-07-16T14:48:10;34.89;23.64
64638;HTU21D;51049;45.046;38.950;2023-07-16T14:50:36;34.83;23.88
64638;HTU21D;51049;45.046;38.950;2023-07-16T14:53:02;34.75;24.16
64638;HTU21D;51049;45.046;38.950;2023-07-16T14:55:29;34.65;24.29
64638;HTU21D;51049;45.046;38.950;2023-07-16T14:57:55;34.55;24.20
64638;HTU21D;51049;45.046;38.950;2023-07-16T15:00:21;34.47;24.05
64638;HTU21D;51049;45.046;38.950;2023-07-16T15:02:47;34.40;24.26
64638;HTU21D;51049;45.046;38.950;2023-07-16T15:05:13;34.40;24.23
64638;HTU21D;51049;45.046;38.950;2023-07-16T15:07:39;34.24;24.35
64638;HTU21D;51049;45.046;38.950;2023-07-16T15:10:06;34.11;24.54
64638;HTU21D;51049;45.046;38.950;2023-07-16T15:12:32;33.92;24.72